createdAt,value
2019-02-27T00:00:47.774Z,56.35
2019-02-27T00:01:52.083Z,56.24
2019-02-27T00:02:56.174Z,56.27
2019-02-27T00:04:02.410Z,56.31
2019-02-27T00:05:08.402Z,56.25
2019-02-27T00:06:12.945Z,56.22
2019-02-27T00:07:20.867Z,56.25
2019-02-27T00:08:26.778Z,56.29
2019-02-27T00:09:27.734Z,56.36
2019-02-27T00:10:31.181Z,56.33
2019-02-27T00:11:34.692Z,56.31
2019-02-27T00:12:38.141Z,56.29
2019-02-27T00:13:41.704Z,56.34
2019-02-27T00:14:45.206Z,56.36
2019-02-27T00:15:48.702Z,56.22
2019-02-27T00:16:52.222Z,56.12
2019-02-27T00:17:55.749Z,56.15
2019-02-27T00:18:59.392Z,56.27
2019-02-27T00:20:04.999Z,56.35
2019-02-27T00:21:10.952Z,56.46
2019-02-27T00:22:14.942Z,56.71
2019-02-27T00:23:18.514Z,57.00
2019-02-27T00:24:21.937Z,57.13
2019-02-27T00:25:25.371Z,57.05
2019-02-27T00:26:28.796Z,57.05
2019-02-27T00:27:32.288Z,57.13
2019-02-27T00:28:35.747Z,57.18
2019-02-27T00:29:39.240Z,57.17
2019-02-27T00:30:42.664Z,57.19
2019-02-27T00:31:46.192Z,57.25
2019-02-27T00:32:51.390Z,57.13
2019-02-27T00:33:59.589Z,57.13
2019-02-27T00:35:00.158Z,57.16
2019-02-27T00:36:03.784Z,57.13
2019-02-27T00:37:07.209Z,57.31
2019-02-27T00:38:10.661Z,57.44
2019-02-27T00:39:14.186Z,57.47
2019-02-27T00:40:17.615Z,57.41
2019-02-27T00:41:21.063Z,57.24
2019-02-27T00:42:33.339Z,57.15
2019-02-27T00:43:29.784Z,57.11
2019-02-27T00:44:34.710Z,57.08
2019-02-27T00:45:40.121Z,57.19
2019-02-27T00:46:43.941Z,57.28
2019-02-27T00:47:52.790Z,57.39
2019-02-27T00:48:53.863Z,57.51
2019-02-27T00:49:57.302Z,57.57
2019-02-27T00:51:00.753Z,57.73
2019-02-27T00:52:04.247Z,57.75
2019-02-27T00:53:07.765Z,57.69
2019-02-27T00:54:11.192Z,57.64
2019-02-27T00:55:14.656Z,57.62
2019-02-27T00:56:18.124Z,57.88
2019-02-27T00:57:21.616Z,58.08
2019-02-27T00:58:27.024Z,58.23
2019-02-27T00:59:32.910Z,58.64
2019-02-27T01:00:38.949Z,58.52
2019-02-27T01:01:40.819Z,58.46
2019-02-27T01:02:44.246Z,58.22
2019-02-27T01:03:47.747Z,58.06
2019-02-27T01:04:51.163Z,58.06
2019-02-27T01:05:54.747Z,58.04
2019-02-27T01:06:58.180Z,58.06
2019-02-27T01:08:01.595Z,58.10
2019-02-27T01:09:07.277Z,58.09
2019-02-27T01:10:12.863Z,58.10
2019-02-27T01:11:18.405Z,57.94
2019-02-27T01:12:22.968Z,57.88
2019-02-27T01:13:28.949Z,57.75
2019-02-27T01:14:31.967Z,57.66
2019-02-27T01:15:35.450Z,57.68
2019-02-27T01:16:38.910Z,57.63
2019-02-27T01:17:42.981Z,57.56
2019-02-27T01:18:46.487Z,57.35
2019-02-27T01:19:49.917Z,57.30
2019-02-27T01:20:53.340Z,57.15
2019-02-27T01:21:56.789Z,57.03
2019-02-27T01:23:00.217Z,56.98
2019-02-27T01:24:03.706Z,56.85
2019-02-27T01:25:07.380Z,56.69
2019-02-27T01:26:10.877Z,56.63
2019-02-27T01:27:14.325Z,56.43
2019-02-27T01:28:17.755Z,56.31
2019-02-27T01:29:21.251Z,56.21
2019-02-27T01:30:24.944Z,56.40
2019-02-27T01:31:28.342Z,56.47
2019-02-27T01:32:31.854Z,56.34
2019-02-27T01:33:38.118Z,56.37
2019-02-27T01:34:44.210Z,56.47
2019-02-27T01:35:45.691Z,56.41
2019-02-27T01:36:49.117Z,56.45
2019-02-27T01:37:52.585Z,56.34
2019-02-27T01:38:56.013Z,56.11
2019-02-27T01:39:59.455Z,56.07
2019-02-27T01:41:02.944Z,56.25
2019-02-27T01:42:06.370Z,55.93
2019-02-27T01:43:09.809Z,55.88
2019-02-27T01:44:13.668Z,55.69
2019-02-27T01:45:20.622Z,55.58
2019-02-27T01:46:25.179Z,55.52
2019-02-27T01:47:28.140Z,55.29
2019-02-27T01:48:31.582Z,55.40
2019-02-27T01:49:35.030Z,55.45
2019-02-27T01:50:38.594Z,55.63
2019-02-27T01:51:42.031Z,55.71
2019-02-27T01:52:45.458Z,55.68
2019-02-27T01:53:48.903Z,55.89
2019-02-27T01:54:52.360Z,55.70
2019-02-27T01:55:56.401Z,55.55
2019-02-27T01:57:02.915Z,55.55
2019-02-27T01:58:09.280Z,55.58
2019-02-27T01:59:11.004Z,55.63
2019-02-27T02:00:14.665Z,55.74
2019-02-27T02:01:18.111Z,55.77
2019-02-27T02:02:21.539Z,55.69
2019-02-27T02:03:25.042Z,55.51
2019-02-27T02:04:28.555Z,55.36
2019-02-27T02:05:32.119Z,55.44
2019-02-27T02:06:35.549Z,55.38
2019-02-27T02:07:40.302Z,55.41
2019-02-27T02:08:47.978Z,55.41
2019-02-27T02:09:52.185Z,55.51
2019-02-27T02:10:56.159Z,55.64
2019-02-27T02:12:01.869Z,55.63
2019-02-27T02:13:14.814Z,55.57
2019-02-27T02:14:21.966Z,55.61
2019-02-27T02:15:45.029Z,55.55
2019-02-27T02:17:00.484Z,55.68
2019-02-27T02:18:23.432Z,55.96
2019-02-27T02:20:02.960Z,56.35
2019-02-27T02:21:25.671Z,56.60
2019-02-27T02:22:32.160Z,56.71
2019-02-27T02:23:58.105Z,56.77
2019-02-27T02:25:20.615Z,56.89
2019-02-27T02:26:34.751Z,56.85
2019-02-27T02:28:14.671Z,56.85
2019-02-27T02:29:40.030Z,56.90
2019-02-27T02:31:05.032Z,57.05
2019-02-27T02:32:28.752Z,57.19
2019-02-27T02:33:43.883Z,57.22
2019-02-27T02:34:58.869Z,57.22
2019-02-27T02:36:05.358Z,57.06
2019-02-27T02:37:17.325Z,57.09
2019-02-27T02:38:52.116Z,57.04
2019-02-27T02:40:16.604Z,57.06
2019-02-27T02:41:46.711Z,57.26
2019-02-27T02:43:13.935Z,57.38
2019-02-27T02:44:29.305Z,57.51
2019-02-27T02:45:44.296Z,57.51
2019-02-27T02:47:21.273Z,57.92
2019-02-27T02:48:31.119Z,58.01
2019-02-27T02:49:50.138Z,57.87
2019-02-27T02:50:56.621Z,57.88
2019-02-27T02:52:17.610Z,57.92
2019-02-27T02:53:38.690Z,57.88
2019-02-27T02:55:04.212Z,57.96
2019-02-27T02:56:28.371Z,57.96
2019-02-27T02:57:37.460Z,57.94
2019-02-27T02:58:48.432Z,57.94
2019-02-27T03:00:03.577Z,57.74
2019-02-27T03:01:15.814Z,57.64
2019-02-27T03:02:41.249Z,57.61
2019-02-27T03:03:56.438Z,57.71
2019-02-27T03:05:23.217Z,58.05
2019-02-27T03:06:46.140Z,58.05
2019-02-27T03:08:04.238Z,57.87
2019-02-27T03:09:22.116Z,57.74
2019-02-27T03:10:43.855Z,58.01
2019-02-27T03:11:54.758Z,58.01
2019-02-27T03:13:41.623Z,57.76
2019-02-27T03:14:44.353Z,57.76
2019-02-27T03:15:50.834Z,57.95
2019-02-27T03:16:59.934Z,58.11
2019-02-27T03:18:26.267Z,58.14
2019-02-27T03:19:41.283Z,58.12
2019-02-27T03:21:17.674Z,58.21
2019-02-27T03:22:30.087Z,58.21
2019-02-27T03:23:39.492Z,58.00
2019-02-27T03:24:51.696Z,57.98
2019-02-27T03:26:03.650Z,57.98
2019-02-27T03:27:10.120Z,58.08
2019-02-27T03:28:22.109Z,58.26
2019-02-27T03:29:34.435Z,58.43
2019-02-27T03:31:01.796Z,58.61
2019-02-27T03:32:11.094Z,58.75
2019-02-27T03:33:45.756Z,58.75
2019-02-27T03:35:17.824Z,58.65
2019-02-27T03:36:46.623Z,58.44
2019-02-27T03:37:56.150Z,58.60
2019-02-27T03:39:11.384Z,58.56
2019-02-27T03:40:20.463Z,58.42
2019-02-27T03:41:32.605Z,58.34
2019-02-27T03:42:41.763Z,58.26
2019-02-27T03:44:02.735Z,58.81
2019-02-27T03:45:30.639Z,58.99
2019-02-27T03:46:44.241Z,59.38
2019-02-27T03:47:53.507Z,59.38
2019-02-27T03:49:03.729Z,58.86
2019-02-27T03:50:27.368Z,58.93
2019-02-27T03:51:36.546Z,58.93
2019-02-27T03:53:03.861Z,58.84
2019-02-27T03:54:34.163Z,58.78
2019-02-27T03:55:57.080Z,58.84
2019-02-27T03:57:09.466Z,58.80
2019-02-27T03:58:18.870Z,58.84
2019-02-27T03:59:34.152Z,58.94
2019-02-27T04:00:53.006Z,58.96
2019-02-27T04:02:06.952Z,59.17
2019-02-27T04:03:18.967Z,59.18
2019-02-27T04:04:43.484Z,59.03
2019-02-27T04:05:58.741Z,58.90
2019-02-27T04:07:31.519Z,58.87
2019-02-27T04:08:55.596Z,58.91
2019-02-27T04:09:59.009Z,58.96
2019-02-27T04:11:05.556Z,59.04
2019-02-27T04:12:07.672Z,59.09
2019-02-27T04:13:11.105Z,59.30
2019-02-27T04:14:28.831Z,59.46
2019-02-27T04:15:32.394Z,59.54
2019-02-27T04:16:38.037Z,59.51
2019-02-27T04:17:39.928Z,59.50
2019-02-27T04:18:43.348Z,59.54
2019-02-27T04:19:46.912Z,59.55
2019-02-27T04:20:51.018Z,59.52
2019-02-27T04:22:00.560Z,59.35
2019-02-27T04:22:59.798Z,59.17
2019-02-27T04:24:03.234Z,59.11
2019-02-27T04:25:08.301Z,58.85
2019-02-27T04:26:11.789Z,58.75
2019-02-27T04:27:20.044Z,58.63
2019-02-27T04:28:20.455Z,58.59
2019-02-27T04:29:23.880Z,58.74
2019-02-27T04:30:27.319Z,58.61
2019-02-27T04:31:30.823Z,58.64
2019-02-27T04:32:34.295Z,58.72
2019-02-27T04:33:37.741Z,58.89
2019-02-27T04:34:41.171Z,58.83
2019-02-27T04:35:44.644Z,58.65
2019-02-27T04:36:48.060Z,58.60
2019-02-27T04:37:53.861Z,58.60
2019-02-27T04:38:56.675Z,58.47
2019-02-27T04:40:00.125Z,58.34
2019-02-27T04:41:03.608Z,58.47
2019-02-27T04:42:07.114Z,58.39
2019-02-27T04:43:10.576Z,58.42
2019-02-27T04:44:14.000Z,58.45
2019-02-27T04:45:17.500Z,58.55
2019-02-27T04:46:21.665Z,58.80
2019-02-27T04:47:28.886Z,59.08
2019-02-27T04:48:31.039Z,59.07
2019-02-27T04:49:34.822Z,58.96
2019-02-27T04:50:41.733Z,58.77
2019-02-27T04:51:44.980Z,58.75
2019-02-27T04:52:48.404Z,58.89
2019-02-27T04:53:51.859Z,58.98
2019-02-27T04:54:55.367Z,59.17
2019-02-27T04:55:58.876Z,59.14
2019-02-27T04:57:02.304Z,59.04
2019-02-27T04:58:08.585Z,59.11
2019-02-27T04:59:10.939Z,59.16
2019-02-27T05:00:14.521Z,59.29
2019-02-27T05:01:18.013Z,59.32
2019-02-27T05:02:21.441Z,59.41
2019-02-27T05:03:25.840Z,59.46
2019-02-27T05:04:34.892Z,59.29
2019-02-27T05:05:35.210Z,59.27
2019-02-27T05:06:38.633Z,59.13
2019-02-27T05:07:42.081Z,59.13
2019-02-27T05:08:45.502Z,59.16
2019-02-27T05:09:48.961Z,59.32
2019-02-27T05:10:52.469Z,59.62
2019-02-27T05:11:55.895Z,59.80
2019-02-27T05:12:59.326Z,59.90
2019-02-27T05:14:02.823Z,59.93
2019-02-27T05:15:08.403Z,60.05
2019-02-27T05:16:14.050Z,60.07
2019-02-27T05:17:21.156Z,60.07
2019-02-27T05:18:22.240Z,60.08
2019-02-27T05:19:25.672Z,60.18
2019-02-27T05:20:29.132Z,60.25
2019-02-27T05:21:32.595Z,60.34
2019-02-27T05:22:36.113Z,60.44
2019-02-27T05:23:39.547Z,60.56
2019-02-27T05:24:42.979Z,60.70
2019-02-27T05:25:46.443Z,60.79
2019-02-27T05:26:49.879Z,60.83
2019-02-27T05:27:53.317Z,60.80
2019-02-27T05:28:56.745Z,60.87
2019-02-27T05:30:00.425Z,61.02
2019-02-27T05:31:03.950Z,61.14
2019-02-27T05:32:07.449Z,61.17
2019-02-27T05:33:10.883Z,60.99
2019-02-27T05:34:14.311Z,60.54
2019-02-27T05:35:18.077Z,60.27
2019-02-27T05:36:21.598Z,60.49
2019-02-27T05:37:25.132Z,60.76
2019-02-27T05:38:28.701Z,60.99
2019-02-27T05:39:33.807Z,61.46
2019-02-27T05:40:37.376Z,61.55
2019-02-27T05:41:40.929Z,61.58
2019-02-27T05:42:44.506Z,61.66
2019-02-27T05:43:48.677Z,61.65
2019-02-27T05:44:55.693Z,61.68
2019-02-27T05:45:57.585Z,61.80
2019-02-27T05:47:01.170Z,61.93
2019-02-27T05:48:04.666Z,61.97
2019-02-27T05:49:08.232Z,61.85
2019-02-27T05:50:12.720Z,61.71
2019-02-27T05:51:16.222Z,61.62
2019-02-27T05:52:19.676Z,61.80
2019-02-27T05:53:23.188Z,62.00
2019-02-27T05:54:26.720Z,62.13
2019-02-27T05:55:30.132Z,62.16
2019-02-27T05:56:33.637Z,62.28
2019-02-27T05:57:37.163Z,62.37
2019-02-27T05:58:40.762Z,62.67
2019-02-27T05:59:44.199Z,62.65
2019-02-27T06:00:47.762Z,62.59
2019-02-27T06:01:51.339Z,62.63
2019-02-27T06:02:56.725Z,62.70
2019-02-27T06:04:00.082Z,62.65
2019-02-27T06:05:04.559Z,62.56
2019-02-27T06:06:11.528Z,62.69
2019-02-27T06:07:18.632Z,62.64
2019-02-27T06:08:20.091Z,62.59
2019-02-27T06:09:23.511Z,62.60
2019-02-27T06:10:27.012Z,62.55
2019-02-27T06:11:33.018Z,62.68
2019-02-27T06:12:38.166Z,62.73
2019-02-27T06:13:40.960Z,62.73
2019-02-27T06:14:44.449Z,62.76
2019-02-27T06:15:49.210Z,62.76
2019-02-27T06:16:52.725Z,62.74
2019-02-27T06:17:56.314Z,62.85
2019-02-27T06:18:59.779Z,62.97
2019-02-27T06:20:07.717Z,62.81
2019-02-27T06:21:08.544Z,62.77
2019-02-27T06:22:11.966Z,62.65
2019-02-27T06:23:15.407Z,62.46
2019-02-27T06:24:18.850Z,62.48
2019-02-27T06:25:23.949Z,62.49
2019-02-27T06:26:27.421Z,62.42
2019-02-27T06:27:31.689Z,63.25
2019-02-27T06:28:35.130Z,63.27
2019-02-27T06:29:38.589Z,63.25
2019-02-27T06:30:42.023Z,63.44
2019-02-27T06:31:45.448Z,63.48
2019-02-27T06:32:48.948Z,63.18
2019-02-27T06:33:52.477Z,63.02
2019-02-27T06:34:59.278Z,62.99
2019-02-27T06:36:01.146Z,62.99
2019-02-27T06:37:04.739Z,63.22
2019-02-27T06:38:08.237Z,63.24
2019-02-27T06:39:11.704Z,63.24
2019-02-27T06:40:18.227Z,63.23
2019-02-27T06:41:21.938Z,63.19
2019-02-27T06:42:25.463Z,63.35
2019-02-27T06:43:29.050Z,63.25
2019-02-27T06:44:32.859Z,63.03
2019-02-27T06:45:36.903Z,62.98
2019-02-27T06:46:40.502Z,62.94
2019-02-27T06:47:44.111Z,62.90
2019-02-27T06:48:47.838Z,63.04
2019-02-27T06:49:51.941Z,62.83
2019-02-27T06:50:58.311Z,62.73
2019-02-27T06:52:01.533Z,62.80
2019-02-27T06:53:05.699Z,62.92
2019-02-27T06:54:09.197Z,62.88
2019-02-27T06:55:14.001Z,62.81
2019-02-27T06:56:18.062Z,62.71
2019-02-27T06:57:22.318Z,62.60
2019-02-27T06:58:25.868Z,62.29
2019-02-27T06:59:29.308Z,62.09
2019-02-27T07:00:36.767Z,62.21
2019-02-27T07:01:38.728Z,62.54
2019-02-27T07:02:42.529Z,62.69
2019-02-27T07:03:46.100Z,63.00
2019-02-27T07:04:50.096Z,63.15
2019-02-27T07:05:53.806Z,62.97
2019-02-27T07:06:58.060Z,62.77
2019-02-27T07:08:02.160Z,62.59
2019-02-27T07:09:11.305Z,62.76
2019-02-27T07:10:19.633Z,62.56
2019-02-27T07:11:20.300Z,62.21
2019-02-27T07:12:23.816Z,62.03
2019-02-27T07:13:29.865Z,62.00
2019-02-27T07:14:32.908Z,61.91
2019-02-27T07:15:36.696Z,61.84
2019-02-27T07:16:40.328Z,61.73
2019-02-27T07:17:44.005Z,62.02
2019-02-27T07:18:47.445Z,62.14
2019-02-27T07:19:50.872Z,62.26
2019-02-27T07:20:55.632Z,62.05
2019-02-27T07:21:59.629Z,62.37
2019-02-27T07:23:03.225Z,62.15
2019-02-27T07:24:07.092Z,62.20
2019-02-27T07:25:15.197Z,61.87
2019-02-27T07:26:18.724Z,61.78
2019-02-27T07:27:22.175Z,61.42
2019-02-27T07:28:25.620Z,61.30
2019-02-27T07:29:29.161Z,61.17
2019-02-27T07:30:32.660Z,61.01
2019-02-27T07:31:36.088Z,60.96
2019-02-27T07:32:39.540Z,61.21
2019-02-27T07:33:42.994Z,61.26
2019-02-27T07:34:49.481Z,61.32
2019-02-27T07:35:51.602Z,61.37
2019-02-27T07:36:55.038Z,61.29
2019-02-27T07:37:58.505Z,61.22
2019-02-27T07:39:01.952Z,61.21
2019-02-27T07:40:11.033Z,61.15
2019-02-27T07:41:17.536Z,61.08
2019-02-27T07:42:19.662Z,61.11
2019-02-27T07:43:23.136Z,60.86
2019-02-27T07:44:26.605Z,60.69
2019-02-27T07:45:30.044Z,60.49
2019-02-27T07:46:35.503Z,60.55
2019-02-27T07:47:38.676Z,60.85
2019-02-27T07:48:42.164Z,60.82
2019-02-27T07:49:45.648Z,60.56
2019-02-27T07:50:49.353Z,60.45
2019-02-27T07:51:57.118Z,60.58
2019-02-27T07:52:57.897Z,60.59
2019-02-27T07:54:01.355Z,60.58
2019-02-27T07:55:18.593Z,60.43
2019-02-27T07:56:12.088Z,60.28
2019-02-27T07:57:15.593Z,60.30
2019-02-27T07:58:19.028Z,60.33
2019-02-27T07:59:22.495Z,60.14
2019-02-27T08:00:26.509Z,60.05
2019-02-27T08:01:30.102Z,59.86
2019-02-27T08:02:33.773Z,59.99
2019-02-27T08:03:38.809Z,59.82
2019-02-27T08:04:42.370Z,59.49
2019-02-27T08:05:45.806Z,58.96
2019-02-27T08:06:49.237Z,59.00
2019-02-27T08:07:52.663Z,58.93
2019-02-27T08:08:57.190Z,59.01
2019-02-27T08:10:04.613Z,59.03
2019-02-27T08:11:06.487Z,59.10
2019-02-27T08:12:10.026Z,58.96
2019-02-27T08:13:13.476Z,58.83
2019-02-27T08:14:16.891Z,58.74
2019-02-27T08:15:20.691Z,58.51
2019-02-27T08:16:24.193Z,58.41
2019-02-27T08:17:27.633Z,58.31
2019-02-27T08:18:36.650Z,58.44
2019-02-27T08:19:36.423Z,58.12
2019-02-27T08:20:39.968Z,57.93
2019-02-27T08:21:43.407Z,57.64
2019-02-27T08:22:46.926Z,57.76
2019-02-27T08:23:50.558Z,57.53
2019-02-27T08:24:54.081Z,57.53
2019-02-27T08:25:57.533Z,57.44
2019-02-27T08:27:01.116Z,57.39
2019-02-27T08:28:04.635Z,57.29
2019-02-27T08:29:08.160Z,57.26
2019-02-27T08:30:26.936Z,57.05
2019-02-27T08:31:32.034Z,56.84
2019-02-27T08:32:35.656Z,56.64
2019-02-27T08:33:39.339Z,56.59
2019-02-27T08:34:42.779Z,56.54
2019-02-27T08:35:46.224Z,56.41
2019-02-27T08:36:49.756Z,56.31
2019-02-27T08:38:02.078Z,56.12
2019-02-27T08:38:58.631Z,56.13
2019-02-27T08:40:02.148Z,55.88
2019-02-27T08:41:05.594Z,55.88
2019-02-27T08:42:09.121Z,55.75
2019-02-27T08:43:12.584Z,55.36
2019-02-27T08:44:16.047Z,55.36
2019-02-27T08:45:26.801Z,55.39
2019-02-27T08:46:27.897Z,55.36
2019-02-27T08:47:31.372Z,55.38
2019-02-27T08:48:34.827Z,55.44
2019-02-27T08:49:38.255Z,55.31
2019-02-27T08:50:43.293Z,55.00
2019-02-27T08:51:46.923Z,54.79
2019-02-27T08:53:59.027Z,54.49
2019-02-27T08:55:05.374Z,54.33
2019-02-27T08:56:05.982Z,53.98
2019-02-27T08:57:09.493Z,53.97
2019-02-27T08:58:13.078Z,54.25
2019-02-27T08:59:16.607Z,54.04
2019-02-27T09:00:28.207Z,53.92
2019-02-27T09:01:31.770Z,53.55
2019-02-27T09:02:35.275Z,53.44
2019-02-27T09:03:39.000Z,52.91
2019-02-27T09:04:42.850Z,52.97
2019-02-27T09:05:47.800Z,52.93
2019-02-27T09:06:51.263Z,52.27
2019-02-27T09:07:54.850Z,51.98
2019-02-27T09:08:58.395Z,52.31
2019-02-27T09:10:01.988Z,51.65
2019-02-27T09:11:06.551Z,51.62
2019-02-27T09:12:13.173Z,51.28
2019-02-27T09:13:15.491Z,50.70
2019-02-27T09:14:18.945Z,50.71
2019-02-27T09:15:22.394Z,50.75
2019-02-27T09:16:26.115Z,50.68
2019-02-27T09:17:31.196Z,50.02
2019-02-27T09:18:36.500Z,50.06
2019-02-27T09:19:44.958Z,49.85
2019-02-27T09:20:45.076Z,49.97
2019-02-27T09:21:48.505Z,49.31
2019-02-27T09:22:52.038Z,48.72
2019-02-27T09:23:55.469Z,49.01
2019-02-27T09:24:59.009Z,48.64
2019-02-27T09:26:03.537Z,48.35
2019-02-27T09:27:07.081Z,48.38
2019-02-27T09:28:10.525Z,48.34
2019-02-27T09:29:18.401Z,48.06
2019-02-27T09:30:28.981Z,47.86
2019-02-27T09:31:29.143Z,47.93
2019-02-27T09:32:32.582Z,48.25
2019-02-27T09:33:38.717Z,47.82
2019-02-27T09:34:41.977Z,47.77
2019-02-27T09:35:45.511Z,47.71
2019-02-27T09:36:49.231Z,47.52
2019-02-27T09:37:52.686Z,47.37
2019-02-27T09:38:57.576Z,46.85
2019-02-27T09:40:04.818Z,46.85
2019-02-27T09:41:06.488Z,46.49
2019-02-27T09:42:09.998Z,46.04
2019-02-27T09:43:16.668Z,45.83
2019-02-27T09:44:22.971Z,45.15
2019-02-27T09:45:28.053Z,45.18
2019-02-27T09:46:31.516Z,45.15
2019-02-27T09:47:35.104Z,45.17
2019-02-27T09:48:38.543Z,45.49
2019-02-27T09:49:42.044Z,45.54
2019-02-27T09:50:48.366Z,45.15
2019-02-27T09:51:55.882Z,45.29
2019-02-27T09:52:57.229Z,45.53
2019-02-27T09:54:00.738Z,45.39
2019-02-27T09:55:04.544Z,45.31
2019-02-27T09:56:08.070Z,45.33
2019-02-27T09:57:11.528Z,45.05
2019-02-27T09:58:15.042Z,44.87
2019-02-27T09:59:19.781Z,44.85
2019-02-27T10:00:37.672Z,44.49
2019-02-27T10:01:41.211Z,44.26
2019-02-27T10:02:46.295Z,44.38
2019-02-27T10:03:51.990Z,43.47
2019-02-27T10:04:55.083Z,42.56
2019-02-27T10:05:58.678Z,42.26
2019-02-27T10:07:02.211Z,42.23
2019-02-27T10:08:07.562Z,42.20
2019-02-27T10:09:14.197Z,42.31
2019-02-27T10:10:17.707Z,41.76
2019-02-27T10:11:22.365Z,41.80
2019-02-27T10:12:27.774Z,41.01
2019-02-27T10:13:31.505Z,40.59
2019-02-27T10:14:35.015Z,40.69
2019-02-27T10:15:38.530Z,40.51
2019-02-27T10:16:42.045Z,39.77
2019-02-27T10:17:45.732Z,39.23
2019-02-27T10:18:49.109Z,39.36
2019-02-27T10:19:52.538Z,39.12
2019-02-27T10:20:56.441Z,39.13
2019-02-27T10:21:59.991Z,39.32
2019-02-27T10:23:03.592Z,39.63
2019-02-27T10:24:07.128Z,39.52
2019-02-27T10:25:10.858Z,38.86
2019-02-27T10:26:16.577Z,39.08
2019-02-27T10:27:19.664Z,38.89
2019-02-27T10:28:23.282Z,38.66
2019-02-27T10:29:26.747Z,38.71
2019-02-27T10:30:30.512Z,38.65
2019-02-27T10:31:34.009Z,38.80
2019-02-27T10:32:37.549Z,38.82
2019-02-27T10:33:42.964Z,38.60
2019-02-27T10:34:46.214Z,38.24
2019-02-27T10:35:49.648Z,37.89
2019-02-27T10:36:53.188Z,37.83
2019-02-27T10:37:56.883Z,37.86
2019-02-27T10:39:02.034Z,41.28
2019-02-27T10:40:17.252Z,40.13
2019-02-27T10:41:23.252Z,37.49
2019-02-27T10:42:26.927Z,38.75
2019-02-27T10:43:30.609Z,38.00
2019-02-27T10:44:34.531Z,39.07
2019-02-27T10:45:38.134Z,40.02
2019-02-27T10:46:41.615Z,38.11
2019-02-27T10:47:45.428Z,37.14
2019-02-27T10:48:49.175Z,37.55
2019-02-27T10:49:53.034Z,37.72
2019-02-27T10:50:56.722Z,37.43
2019-02-27T10:52:00.359Z,37.14
2019-02-27T10:53:04.381Z,34.91
2019-02-27T10:54:08.190Z,34.78
2019-02-27T10:55:14.873Z,35.74
2019-02-27T10:56:18.281Z,36.19
2019-02-27T10:57:21.732Z,35.87
2019-02-27T10:58:25.168Z,36.09
2019-02-27T10:59:28.668Z,36.06
2019-02-27T11:00:33.232Z,35.59
2019-02-27T11:01:37.069Z,35.46
2019-02-27T11:02:40.874Z,34.10
2019-02-27T11:03:44.449Z,34.20
2019-02-27T11:04:49.967Z,34.52
2019-02-27T11:05:55.551Z,34.66
2019-02-27T11:06:59.095Z,34.80
2019-02-27T11:08:02.926Z,34.96
2019-02-27T11:09:08.949Z,34.25
2019-02-27T11:10:12.930Z,36.45
2019-02-27T11:11:16.656Z,39.04
2019-02-27T11:12:20.189Z,40.42
2019-02-27T11:13:23.862Z,38.74
2019-02-27T11:14:31.740Z,41.72
2019-02-27T11:15:33.149Z,37.79
2019-02-27T11:16:36.684Z,34.65
2019-02-27T11:17:40.416Z,36.10
2019-02-27T11:18:43.888Z,34.40
2019-02-27T11:19:48.893Z,34.03
2019-02-27T11:20:55.728Z,33.52
2019-02-27T11:21:59.177Z,32.76
2019-02-27T11:23:06.727Z,32.83
2019-02-27T11:24:07.847Z,32.84
2019-02-27T11:25:14.338Z,32.36
2019-02-27T11:26:17.872Z,32.26
2019-02-27T11:27:21.313Z,32.65
2019-02-27T11:28:24.749Z,32.60
2019-02-27T11:29:28.321Z,32.11
2019-02-27T11:30:36.804Z,31.65
2019-02-27T11:31:42.303Z,32.01
2019-02-27T11:32:45.271Z,32.22
2019-02-27T11:33:48.801Z,31.19
2019-02-27T11:34:52.247Z,31.96
2019-02-27T11:35:55.754Z,31.64
2019-02-27T11:36:59.216Z,31.10
2019-02-27T11:38:02.768Z,30.70
2019-02-27T11:39:07.072Z,30.15
2019-02-27T11:40:13.354Z,30.63
2019-02-27T11:41:16.856Z,30.51
2019-02-27T11:42:20.326Z,30.41
2019-02-27T11:43:24.003Z,30.90
2019-02-27T11:44:27.531Z,29.59
2019-02-27T11:45:31.046Z,29.76
2019-02-27T11:46:35.125Z,29.87
2019-02-27T11:47:44.693Z,30.57
2019-02-27T11:48:45.028Z,29.78
2019-02-27T11:49:48.548Z,30.00
2019-02-27T11:50:52.362Z,29.67
2019-02-27T11:51:57.027Z,30.33
2019-02-27T11:53:02.709Z,29.44
2019-02-27T11:54:08.256Z,29.12
2019-02-27T11:55:14.838Z,28.31
2019-02-27T11:56:20.318Z,28.56
2019-02-27T11:57:24.318Z,27.61
2019-02-27T11:58:27.798Z,28.94
2019-02-27T11:59:31.243Z,28.96
2019-02-27T12:00:34.830Z,29.43
2019-02-27T12:01:38.352Z,28.31
2019-02-27T12:02:41.924Z,28.86
2019-02-27T12:03:45.945Z,29.33
2019-02-27T12:04:53.484Z,28.93
2019-02-27T12:05:55.406Z,28.36
2019-02-27T12:06:58.857Z,28.81
2019-02-27T12:08:02.289Z,27.62
2019-02-27T12:09:07.571Z,28.35
2019-02-27T12:10:16.772Z,28.78
2019-02-27T12:11:20.211Z,28.18
2019-02-27T12:12:24.164Z,28.43
2019-02-27T12:13:27.677Z,27.93
2019-02-27T12:14:31.231Z,27.36
2019-02-27T12:15:34.770Z,27.12
2019-02-27T12:16:38.211Z,26.89
2019-02-27T12:17:41.727Z,26.70
2019-02-27T12:18:45.169Z,26.71
2019-02-27T12:19:48.734Z,27.16
2019-02-27T12:20:53.927Z,27.20
2019-02-27T12:22:00.222Z,27.15
2019-02-27T12:23:02.766Z,26.76
2019-02-27T12:24:06.270Z,26.72
2019-02-27T12:25:15.005Z,26.53
2019-02-27T12:26:18.528Z,26.13
2019-02-27T12:27:47.409Z,26.09
2019-02-27T12:28:27.381Z,26.39
2019-02-27T12:29:30.970Z,25.40
2019-02-27T12:30:37.118Z,24.69
2019-02-27T12:31:40.016Z,24.05
2019-02-27T12:32:43.621Z,23.27
2019-02-27T12:33:47.157Z,23.49
2019-02-27T12:34:50.733Z,22.31
2019-02-27T12:35:54.363Z,21.64
2019-02-27T12:36:57.957Z,19.70
2019-02-27T12:38:01.403Z,20.04
2019-02-27T12:39:06.588Z,19.04
2019-02-27T12:40:15.714Z,19.13
2019-02-27T12:41:19.249Z,18.18
2019-02-27T12:42:22.754Z,18.31
2019-02-27T12:43:26.253Z,18.27
2019-02-27T12:44:29.793Z,17.48
2019-02-27T12:45:33.402Z,17.97
2019-02-27T12:46:37.098Z,18.04
2019-02-27T12:47:41.384Z,19.09
2019-02-27T12:48:46.431Z,19.89
2019-02-27T12:49:51.571Z,21.39
2019-02-27T12:50:55.383Z,21.84
2019-02-27T12:51:58.956Z,20.93
2019-02-27T12:53:02.646Z,21.02
2019-02-27T12:54:06.195Z,21.54
2019-02-27T12:55:10.355Z,20.99
2019-02-27T12:56:13.942Z,20.42
2019-02-27T12:57:18.151Z,20.61
2019-02-27T12:58:24.406Z,20.58
2019-02-27T12:59:26.977Z,19.56
2019-02-27T13:00:32.023Z,18.29
2019-02-27T13:01:35.473Z,18.51
2019-02-27T13:02:39.004Z,17.71
2019-02-27T13:03:43.055Z,17.04
2019-02-27T13:04:47.219Z,17.46
2019-02-27T13:05:50.653Z,17.50
2019-02-27T13:06:54.364Z,17.71
2019-02-27T13:07:58.063Z,17.16
2019-02-27T13:09:01.581Z,16.65
2019-02-27T13:10:08.183Z,15.95
2019-02-27T13:11:11.629Z,16.45
2019-02-27T13:12:17.344Z,15.65
2019-02-27T13:13:20.326Z,15.97
2019-02-27T13:14:23.859Z,16.29
2019-02-27T13:15:30.740Z,16.61
2019-02-27T13:16:34.182Z,14.87
2019-02-27T13:17:37.682Z,15.45
2019-02-27T13:18:41.213Z,15.84
2019-02-27T13:19:44.674Z,16.08
2019-02-27T13:20:48.115Z,15.82
2019-02-27T13:21:52.305Z,15.47
2019-02-27T13:22:56.931Z,16.21
2019-02-27T13:24:00.379Z,15.97
2019-02-27T13:25:04.947Z,15.97
2019-02-27T13:26:08.382Z,15.70
2019-02-27T13:27:11.833Z,15.94
2019-02-27T13:28:15.698Z,15.94
2019-02-27T13:29:20.606Z,15.20
2019-02-27T13:30:28.996Z,16.16
2019-02-27T13:31:32.444Z,16.16
2019-02-27T13:32:35.963Z,16.31
2019-02-27T13:33:39.407Z,16.19
2019-02-27T13:34:45.323Z,16.19
2019-02-27T13:35:48.068Z,15.90
2019-02-27T13:36:51.505Z,15.90
2019-02-27T13:37:55.011Z,15.63
2019-02-27T13:38:59.370Z,15.42
2019-02-27T13:40:03.125Z,15.58
2019-02-27T13:41:07.671Z,15.43
2019-02-27T13:42:11.933Z,15.46
2019-02-27T13:43:15.451Z,15.48
2019-02-27T13:44:19.064Z,15.48
2019-02-27T13:45:29.113Z,15.01
2019-02-27T13:46:32.570Z,14.91
2019-02-27T13:47:36.019Z,15.09
2019-02-27T13:48:39.879Z,15.58
2019-02-27T13:49:45.056Z,14.93
2019-02-27T13:50:49.223Z,15.24
2019-02-27T13:51:52.908Z,15.24
2019-02-27T13:52:56.420Z,15.01
2019-02-27T13:54:00.545Z,15.01
2019-02-27T13:55:05.661Z,15.05
2019-02-27T13:56:09.215Z,14.92
2019-02-27T13:57:12.733Z,14.60
2019-02-27T13:58:16.310Z,15.07
2019-02-27T13:59:19.749Z,15.42
2019-02-27T14:00:30.462Z,15.51
2019-02-27T14:01:33.897Z,15.31
2019-02-27T14:02:39.437Z,16.00
2019-02-27T14:03:42.699Z,15.84
2019-02-27T14:04:46.133Z,16.39
2019-02-27T14:05:49.725Z,16.39
2019-02-27T14:06:53.170Z,16.40
2019-02-27T14:07:58.484Z,16.40
2019-02-27T14:09:04.420Z,16.42